sensor_id;sensor_type;location;lat;lon;timestamp;temperature;humidity
19493;DHT22;9887;54.366;10.958;2023-08-06T00:01:46;18.20;99.90
19493;DHT22;9887;54.366;10.958;2023-08-06T00:04:14;18.20;99.90
19493;DHT22;9887;54.366;10.958;2023-08-06T00:06:42;18.10;99.90
19493;DHT22;9887;54.366;10.958;2023-08-06T00:09:10;18.10;99.90
19493;DHT22;9887;54.366;10.958;2023-08-06T00:11:39;18.10;99.90
19493;DHT22;9887;54.366;10.958;2023-08-06T00:14:08;18.00;99.90
19493;DHT22;9887;54.366;10.958;2023-08-06T00:16:35;17.90;99.90
19493;DHT22;9887;54.366;10.958;2023-08-06T00:19:03;17.90;99.90
19493;DHT22;9887;54.366;10.958;2023-08-06T00:21:31;17.90;99.90
19493;DHT22;9887;54.366;10.958;2023-08-06T00:23:59;17.90;99.90
19493;DHT22;9887;54.366;10.958;2023-08-06T00:26:27;17.90;99.90
19493;DHT22;9887;54.366;10.958;2023-08-06T00:28:56;17.90;99.90
19493;DHT22;9887;54.366;10.958;2023-08-06T00:31:24;17.90;99.90
19493;DHT22;9887;54.366;10.958;2023-08-06T00:33:52;17.90;99.90
19493;DHT22;9887;54.366;10.958;2023-08-06T00:36:19;17.90;99.90
19493;DHT22;9887;54.366;10.958;2023-08-06T00:38:48;17.90;99.90
19493;DHT22;9887;54.366;10.958;2023-08-06T00:41:16;17.90;99.90
19493;DHT22;9887;54.366;10.958;2023-08-06T00:43:44;17.80;99.90
19493;DHT22;9887;54.366;10.958;2023-08-06T00:46:13;17.90;99.90
19493;DHT22;9887;54.366;10.958;2023-08-06T00:48:42;17.80;99.90
19493;DHT22;9887;54.366;10.958;2023-08-06T00:51:10;17.80;99.90
19493;DHT22;9887;54.366;10.958;2023-08-06T00:53:39;17.90;99.90
19493;DHT22;9887;54.366;10.958;2023-08-06T00:56:07;17.80;99.90
19493;DHT22;9887;54.366;10.958;2023-08-06T00:58:36;17.80;99.90
19493;DHT22;9887;54.366;10.958;2023-08-06T01:01:05;17.80;99.90
19493;DHT22;9887;54.366;10.958;2023-08-06T01:03:34;17.80;99.90
19493;DHT22;9887;54.366;10.958;2023-08-06T01:06:02;17.80;99.90
19493;DHT22;9887;54.366;10.958;2023-08-06T01:08:36;17.80;99.90
19493;DHT22;9887;54.366;10.958;2023-08-06T01:11:17;17.70;99.90
19493;DHT22;9887;54.366;10.958;2023-08-06T01:13:54;17.70;99.90
19493;DHT22;9887;54.366;10.958;2023-08-06T01:16:26;17.70;99.90
19493;DHT22;9887;54.366;10.958;2023-08-06T01:18:55;17.70;99.90
19493;DHT22;9887;54.366;10.958;2023-08-06T01:21:27;17.70;99.90
19493;DHT22;9887;54.366;10.958;2023-08-06T01:23:54;17.70;99.90
19493;DHT22;9887;54.366;10.958;2023-08-06T01:26:28;17.70;99.90
19493;DHT22;9887;54.366;10.958;2023-08-06T01:29:01;17.70;99.90
19493;DHT22;9887;54.366;10.958;2023-08-06T01:31:36;17.70;99.90
19493;DHT22;9887;54.366;10.958;2023-08-06T01:34:07;17.70;99.90
19493;DHT22;9887;54.366;10.958;2023-08-06T01:36:38;17.70;99.90
19493;DHT22;9887;54.366;10.958;2023-08-06T01:39:07;17.70;99.90
19493;DHT22;9887;54.366;10.958;2023-08-06T01:41:35;17.60;99.90
19493;DHT22;9887;54.366;10.958;2023-08-06T01:44:03;17.70;99.90
19493;DHT22;9887;54.366;10.958;2023-08-06T01:46:31;17.70;99.90
19493;DHT22;9887;54.366;10.958;2023-08-06T01:48:59;17.60;99.90
19493;DHT22;9887;54.366;10.958;2023-08-06T01:51:27;17.60;99.90
19493;DHT22;9887;54.366;10.958;2023-08-06T01:53:56;17.70;99.90
19493;DHT22;9887;54.366;10.958;2023-08-06T01:56:24;17.60;99.90
19493;DHT22;9887;54.366;10.958;2023-08-06T01:58:52;17.60;99.90
19493;DHT22;9887;54.366;10.958;2023-08-06T02:01:20;17.60;99.90
19493;DHT22;9887;54.366;10.958;2023-08-06T02:03:48;17.60;99.90
19493;DHT22;9887;54.366;10.958;2023-08-06T02:06:15;17.60;99.90
19493;DHT22;9887;54.366;10.958;2023-08-06T02:08:44;17.60;99.90
19493;DHT22;9887;54.366;10.958;2023-08-06T02:11:16;17.60;99.90
19493;DHT22;9887;54.366;10.958;2023-08-06T02:13:46;17.60;99.90
19493;DHT22;9887;54.366;10.958;2023-08-06T02:16:18;17.60;99.90
19493;DHT22;9887;54.366;10.958;2023-08-06T02:18:46;17.60;99.90
19493;DHT22;9887;54.366;10.958;2023-08-06T02:21:13;17.50;99.90
19493;DHT22;9887;54.366;10.958;2023-08-06T02:23:41;17.50;99.90
19493;DHT22;9887;54.366;10.958;2023-08-06T02:26:09;17.50;99.90
19493;DHT22;9887;54.366;10.958;2023-08-06T02:28:38;17.50;99.90
19493;DHT22;9887;54.366;10.958;2023-08-06T02:31:06;17.50;99.90
19493;DHT22;9887;54.366;10.958;2023-08-06T02:33:36;17.50;99.90
19493;DHT22;9887;54.366;10.958;2023-08-06T02:36:04;17.50;99.90
19493;DHT22;9887;54.366;10.958;2023-08-06T02:38:32;17.50;99.90
19493;DHT22;9887;54.366;10.958;2023-08-06T02:41:02;17.50;99.90
19493;DHT22;9887;54.366;10.958;2023-08-06T02:43:30;17.40;99.90
19493;DHT22;9887;54.366;10.958;2023-08-06T02:46:00;17.40;99.90
19493;DHT22;9887;54.366;10.958;2023-08-06T02:48:28;17.40;99.90
19493;DHT22;9887;54.366;10.958;2023-08-06T02:51:00;17.40;99.90
19493;DHT22;9887;54.366;10.958;2023-08-06T02:53:30;17.40;99.90
19493;DHT22;9887;54.366;10.958;2023-08-06T02:56:01;17.40;99.90
19493;DHT22;9887;54.366;10.958;2023-08-06T02:58:38;17.40;99.90
19493;DHT22;9887;54.366;10.958;2023-08-06T03:01:16;17.40;99.90
19493;DHT22;9887;54.366;10.958;2023-08-06T03:03:51;17.40;99.90
19493;DHT22;9887;54.366;10.958;2023-08-06T03:06:25;17.40;99.90
19493;DHT22;9887;54.366;10.958;2023-08-06T03:08:55;17.30;99.90
19493;DHT22;9887;54.366;10.958;2023-08-06T03:11:23;17.30;99.90
19493;DHT22;9887;54.366;10.958;2023-08-06T03:13:55;17.30;99.90
19493;DHT22;9887;54.366;10.958;2023-08-06T03:16:24;17.30;99.90
19493;DHT22;9887;54.366;10.958;2023-08-06T03:18:53;17.20;99.90
19493;DHT22;9887;54.366;10.958;2023-08-06T03:21:21;17.30;99.90
19493;DHT22;9887;54.366;10.958;2023-08-06T03:23:49;17.30;99.90
19493;DHT22;9887;54.366;10.958;2023-08-06T03:26:21;17.30;99.90
19493;DHT22;9887;54.366;10.958;2023-08-06T03:28:49;17.20;99.90
19493;DHT22;9887;54.366;10.958;2023-08-06T03:31:17;17.20;99.90
19493;DHT22;9887;54.366;10.958;2023-08-06T03:33:46;17.20;99.90
19493;DHT22;9887;54.366;10.958;2023-08-06T03:36:17;17.20;99.90
19493;DHT22;9887;54.366;10.958;2023-08-06T03:38:45;17.30;99.90
19493;DHT22;9887;54.366;10.958;2023-08-06T03:41:14;17.20;99.90
19493;DHT22;9887;54.366;10.958;2023-08-06T03:43:43;17.20;99.90
19493;DHT22;9887;54.366;10.958;2023-08-06T03:46:17;17.20;99.90
19493;DHT22;9887;54.366;10.958;2023-08-06T03:48:47;17.20;99.90
19493;DHT22;9887;54.366;10.958;2023-08-06T03:51:15;17.20;99.90
19493;DHT22;9887;54.366;10.958;2023-08-06T03:53:45;17.20;99.90
19493;DHT22;9887;54.366;10.958;2023-08-06T03:56:12;17.20;99.90
19493;DHT22;9887;54.366;10.958;2023-08-06T03:58:40;17.20;99.90
19493;DHT22;9887;54.366;10.958;2023-08-06T04:01:08;17.20;99.90
19493;DHT22;9887;54.366;10.958;2023-08-06T04:03:48;17.20;99.90
19493;DHT22;9887;54.366;10.958;2023-08-06T04:06:16;17.20;99.90
19493;DHT22;9887;54.366;10.958;2023-08-06T04:08:44;17.20;99.90
19493;DHT22;9887;54.366;10.958;2023-08-06T04:11:12;17.20;99.90
19493;DHT22;9887;54.366;10.958;2023-08-06T04:13:42;17.20;99.90
19493;DHT22;9887;54.366;10.958;2023-08-06T04:16:10;17.20;99.90
19493;DHT22;9887;54.366;10.958;2023-08-06T04:18:40;17.20;99.90
19493;DHT22;9887;54.366;10.958;2023-08-06T04:21:09;17.20;99.90
19493;DHT22;9887;54.366;10.958;2023-08-06T04:23:37;17.20;99.90
19493;DHT22;9887;54.366;10.958;2023-08-06T04:26:07;17.20;99.90
19493;DHT22;9887;54.366;10.958;2023-08-06T04:28:36;17.20;99.90
19493;DHT22;9887;54.366;10.958;2023-08-06T04:31:04;17.20;99.90
19493;DHT22;9887;54.366;10.958;2023-08-06T04:33:33;17.20;99.90
19493;DHT22;9887;54.366;10.958;2023-08-06T04:36:06;17.20;99.90
19493;DHT22;9887;54.366;10.958;2023-08-06T04:38:36;17.30;99.90
19493;DHT22;9887;54.366;10.958;2023-08-06T04:41:05;17.20;99.90
19493;DHT22;9887;54.366;10.958;2023-08-06T04:43:32;17.20;99.90
19493;DHT22;9887;54.366;10.958;2023-08-06T04:46:00;17.20;99.90
19493;DHT22;9887;54.366;10.958;2023-08-06T04:48:28;17.20;99.90
19493;DHT22;9887;54.366;10.958;2023-08-06T04:50:56;17.20;99.90
19493;DHT22;9887;54.366;10.958;2023-08-06T04:53:24;17.20;99.90
19493;DHT22;9887;54.366;10.958;2023-08-06T04:55:53;17.20;99.90
19493;DHT22;9887;54.366;10.958;2023-08-06T04:58:21;17.20;99.90
19493;DHT22;9887;54.366;10.958;2023-08-06T05:00:49;17.20;99.90
19493;DHT22;9887;54.366;10.958;2023-08-06T05:03:17;17.20;99.90
19493;DHT22;9887;54.366;10.958;2023-08-06T05:05:46;17.20;99.90
19493;DHT22;9887;54.366;10.958;2023-08-06T05:08:14;17.20;99.90
19493;DHT22;9887;54.366;10.958;2023-08-06T05:10:43;17.30;99.90
19493;DHT22;9887;54.366;10.958;2023-08-06T05:13:13;17.30;99.90
19493;DHT22;9887;54.366;10.958;2023-08-06T05:15:41;17.30;99.90
19493;DHT22;9887;54.366;10.958;2023-08-06T05:18:09;17.30;99.90
19493;DHT22;9887;54.366;10.958;2023-08-06T05:20:39;17.30;99.90
19493;DHT22;9887;54.366;10.958;2023-08-06T05:23:07;17.30;99.90
19493;DHT22;9887;54.366;10.958;2023-08-06T05:25:35;17.30;99.90
19493;DHT22;9887;54.366;10.958;2023-08-06T05:28:03;17.30;99.90
19493;DHT22;9887;54.366;10.958;2023-08-06T05:30:33;17.30;99.90
19493;DHT22;9887;54.366;10.958;2023-08-06T05:33:03;17.30;99.90
19493;DHT22;9887;54.366;10.958;2023-08-06T05:35:31;17.40;99.90
19493;DHT22;9887;54.366;10.958;2023-08-06T05:37:59;17.40;99.90
19493;DHT22;9887;54.366;10.958;2023-08-06T05:40:27;17.40;99.90
19493;DHT22;9887;54.366;10.958;2023-08-06T05:42:55;17.40;99.90
19493;DHT22;9887;54.366;10.958;2023-08-06T05:45:22;17.40;99.90
19493;DHT22;9887;54.366;10.958;2023-08-06T05:47:52;17.40;99.90
19493;DHT22;9887;54.366;10.958;2023-08-06T05:50:20;17.40;99.90
19493;DHT22;9887;54.366;10.958;2023-08-06T05:52:48;17.40;99.90
19493;DHT22;9887;54.366;10.958;2023-08-06T05:55:15;17.40;99.90
19493;DHT22;9887;54.366;10.958;2023-08-06T05:57:43;17.40;99.90
19493;DHT22;9887;54.366;10.958;2023-08-06T06:00:12;17.50;99.90
19493;DHT22;9887;54.366;10.958;2023-08-06T06:02:40;17.50;99.90
19493;DHT22;9887;54.366;10.958;2023-08-06T06:05:09;17.50;99.90
19493;DHT22;9887;54.366;10.958;2023-08-06T06:07:37;17.50;99.90
19493;DHT22;9887;54.366;10.958;2023-08-06T06:10:07;17.50;99.90
19493;DHT22;9887;54.366;10.958;2023-08-06T06:12:38;17.50;99.90
19493;DHT22;9887;54.366;10.958;2023-08-06T06:15:07;17.50;99.90
19493;DHT22;9887;54.366;10.958;2023-08-06T06:17:36;17.50;99.90
19493;DHT22;9887;54.366;10.958;2023-08-06T06:20:06;17.50;99.90
19493;DHT22;9887;54.366;10.958;2023-08-06T06:22:36;17.60;99.90
19493;DHT22;9887;54.366;10.958;2023-08-06T06:25:05;17.60;99.90
19493;DHT22;9887;54.366;10.958;2023-08-06T06:27:34;17.60;99.90
19493;DHT22;9887;54.366;10.958;2023-08-06T06:30:02;17.60;99.90
19493;DHT22;9887;54.366;10.958;2023-08-06T06:32:31;17.60;99.90
19493;DHT22;9887;54.366;10.958;2023-08-06T06:35:01;17.60;99.90
19493;DHT22;9887;54.366;10.958;2023-08-06T06:37:30;17.70;99.90
19493;DHT22;9887;54.366;10.958;2023-08-06T06:40:00;17.70;99.90
19493;DHT22;9887;54.366;10.958;2023-08-06T06:42:28;17.70;99.90
19493;DHT22;9887;54.366;10.958;2023-08-06T06:45:00;17.70;99.90
19493;DHT22;9887;54.366;10.958;2023-08-06T06:47:29;17.80;99.90
19493;DHT22;9887;54.366;10.958;2023-08-06T06:49:57;17.80;99.90
19493;DHT22;9887;54.366;10.958;2023-08-06T06:52:26;17.80;99.90
19493;DHT22;9887;54.366;10.958;2023-08-06T06:54:54;17.80;99.90
19493;DHT22;9887;54.366;10.958;2023-08-06T06:57:24;17.90;99.90
19493;DHT22;9887;54.366;10.958;2023-08-06T06:59:53;17.90;99.90
19493;DHT22;9887;54.366;10.958;2023-08-06T07:02:22;18.00;99.90
19493;DHT22;9887;54.366;10.958;2023-08-06T07:04:51;18.00;99.90
19493;DHT22;9887;54.366;10.958;2023-08-06T07:07:19;18.10;99.90
19493;DHT22;9887;54.366;10.958;2023-08-06T07:09:47;18.10;99.90
19493;DHT22;9887;54.366;10.958;2023-08-06T07:12:15;18.10;99.90
19493;DHT22;9887;54.366;10.958;2023-08-06T07:14:44;18.10;99.90
19493;DHT22;9887;54.366;10.958;2023-08-06T07:17:12;18.20;99.90
19493;DHT22;9887;54.366;10.958;2023-08-06T07:19:40;18.30;99.90
19493;DHT22;9887;54.366;10.958;2023-08-06T07:22:08;18.30;99.90
19493;DHT22;9887;54.366;10.958;2023-08-06T07:24:36;18.30;99.90
19493;DHT22;9887;54.366;10.958;2023-08-06T07:27:04;18.40;99.90
19493;DHT22;9887;54.366;10.958;2023-08-06T07:29:32;18.40;99.90
19493;DHT22;9887;54.366;10.958;2023-08-06T07:32:01;18.40;99.90
19493;DHT22;9887;54.366;10.958;2023-08-06T07:34:29;18.50;99.90
19493;DHT22;9887;54.366;10.958;2023-08-06T07:36:57;18.50;99.90
19493;DHT22;9887;54.366;10.958;2023-08-06T07:39:25;18.50;99.90
19493;DHT22;9887;54.366;10.958;2023-08-06T07:41:55;18.60;99.90
19493;DHT22;9887;54.366;10.958;2023-08-06T07:44:23;18.70;99.90
19493;DHT22;9887;54.366;10.958;2023-08-06T07:46:51;18.70;99.90
19493;DHT22;9887;54.366;10.958;2023-08-06T07:49:21;18.80;99.90
19493;DHT22;9887;54.366;10.958;2023-08-06T07:51:49;18.80;99.90
19493;DHT22;9887;54.366;10.958;2023-08-06T07:54:18;18.80;99.90
19493;DHT22;9887;54.366;10.958;2023-08-06T07:56:46;18.80;99.90
19493;DHT22;9887;54.366;10.958;2023-08-06T07:59:14;18.90;99.90
19493;DHT22;9887;54.366;10.958;2023-08-06T08:01:42;18.90;99.90
19493;DHT22;9887;54.366;10.958;2023-08-06T08:04:10;19.00;99.90
19493;DHT22;9887;54.366;10.958;2023-08-06T08:06:39;19.00;99.90
19493;DHT22;9887;54.366;10.958;2023-08-06T08:09:07;19.10;99.90
19493;DHT22;9887;54.366;10.958;2023-08-06T08:11:34;19.20;99.90
19493;DHT22;9887;54.366;10.958;2023-08-06T08:14:03;19.20;99.90
19493;DHT22;9887;54.366;10.958;2023-08-06T08:16:31;19.20;99.90
19493;DHT22;9887;54.366;10.958;2023-08-06T08:18:59;19.30;99.90
19493;DHT22;9887;54.366;10.958;2023-08-06T08:21:27;19.30;99.90
19493;DHT22;9887;54.366;10.958;2023-08-06T08:23:56;19.30;99.90
19493;DHT22;9887;54.366;10.958;2023-08-06T08:26:24;19.40;99.90
19493;DHT22;9887;54.366;10.958;2023-08-06T08:28:54;19.40;99.90
19493;DHT22;9887;54.366;10.958;2023-08-06T08:31:22;19.50;99.90
19493;DHT22;9887;54.366;10.958;2023-08-06T08:33:50;19.50;99.90
19493;DHT22;9887;54.366;10.958;2023-08-06T08:36:20;19.60;99.90
19493;DHT22;9887;54.366;10.958;2023-08-06T08:38:48;19.60;99.90
19493;DHT22;9887;54.366;10.958;2023-08-06T08:41:21;19.60;99.90
19493;DHT22;9887;54.366;10.958;2023-08-06T08:43:50;19.70;99.90
19493;DHT22;9887;54.366;10.958;2023-08-06T08:46:19;19.70;99.90
19493;DHT22;9887;54.366;10.958;2023-08-06T08:48:47;19.80;99.90
19493;DHT22;9887;54.366;10.958;2023-08-06T08:51:15;19.80;99.90
19493;DHT22;9887;54.366;10.958;2023-08-06T08:53:44;19.90;99.90
19493;DHT22;9887;54.366;10.958;2023-08-06T08:56:13;19.90;99.90
19493;DHT22;9887;54.366;10.958;2023-08-06T08:58:42;20.00;99.90
19493;DHT22;9887;54.366;10.958;2023-08-06T09:01:10;20.10;99.90
19493;DHT22;9887;54.366;10.958;2023-08-06T09:03:39;20.10;99.90
19493;DHT22;9887;54.366;10.958;2023-08-06T09:06:07;20.20;99.90
19493;DHT22;9887;54.366;10.958;2023-08-06T09:08:41;20.20;99.90
19493;DHT22;9887;54.366;10.958;2023-08-06T09:11:11;20.30;99.90
19493;DHT22;9887;54.366;10.958;2023-08-06T09:13:39;20.30;99.90
19493;DHT22;9887;54.366;10.958;2023-08-06T09:16:08;20.40;99.90
19493;DHT22;9887;54.366;10.958;2023-08-06T09:18:39;20.40;99.90
19493;DHT22;9887;54.366;10.958;2023-08-06T09:21:13;20.50;99.90
19493;DHT22;9887;54.366;10.958;2023-08-06T09:23:41;20.60;99.90
19493;DHT22;9887;54.366;10.958;2023-08-06T09:26:11;20.60;99.90
19493;DHT22;9887;54.366;10.958;2023-08-06T09:28:42;20.70;99.90
19493;DHT22;9887;54.366;10.958;2023-08-06T09:31:12;20.70;99.90
19493;DHT22;9887;54.366;10.958;2023-08-06T09:33:40;20.70;99.90
19493;DHT22;9887;54.366;10.958;2023-08-06T09:36:08;20.70;99.90
19493;DHT22;9887;54.366;10.958;2023-08-06T09:38:40;20.80;99.90
19493;DHT22;9887;54.366;10.958;2023-08-06T09:41:08;20.80;99.90
19493;DHT22;9887;54.366;10.958;2023-08-06T09:43:40;20.90;99.90
19493;DHT22;9887;54.366;10.958;2023-08-06T09:46:14;20.90;99.90
19493;DHT22;9887;54.366;10.958;2023-08-06T09:48:45;20.90;99.90
19493;DHT22;9887;54.366;10.958;2023-08-06T09:51:14;21.00;99.90
19493;DHT22;9887;54.366;10.958;2023-08-06T09:53:42;21.00;99.90
19493;DHT22;9887;54.366;10.958;2023-08-06T09:56:11;21.00;99.90
19493;DHT22;9887;54.366;10.958;2023-08-06T09:58:42;21.10;99.90
19493;DHT22;9887;54.366;10.958;2023-08-06T10:01:11;21.10;99.90
19493;DHT22;9887;54.366;10.958;2023-08-06T10:03:40;21.20;99.90
19493;DHT22;9887;54.366;10.958;2023-08-06T10:06:10;21.20;99.90
19493;DHT22;9887;54.366;10.958;2023-08-06T10:08:39;21.30;99.90
19493;DHT22;9887;54.366;10.958;2023-08-06T10:11:09;21.30;99.90
19493;DHT22;9887;54.366;10.958;2023-08-06T10:13:37;21.40;99.90
19493;DHT22;9887;54.366;10.958;2023-08-06T10:16:06;21.40;99.90
19493;DHT22;9887;54.366;10.958;2023-08-06T10:18:37;21.40;99.90
19493;DHT22;9887;54.366;10.958;2023-08-06T10:21:09;21.40;99.90
19493;DHT22;9887;54.366;10.958;2023-08-06T10:23:39;21.50;99.90
19493;DHT22;9887;54.366;10.958;2023-08-06T10:26:08;21.60;99.90
19493;DHT22;9887;54.366;10.958;2023-08-06T10:28:37;21.60;99.90
19493;DHT22;9887;54.366;10.958;2023-08-06T10:31:05;21.60;99.90
19493;DHT22;9887;54.366;10.958;2023-08-06T10:33:43;21.70;99.90
19493;DHT22;9887;54.366;10.958;2023-08-06T10:36:13;21.70;99.90
19493;DHT22;9887;54.366;10.958;2023-08-06T10:38:46;21.80;99.90
19493;DHT22;9887;54.366;10.958;2023-08-06T10:41:16;21.80;99.90
19493;DHT22;9887;54.366;10.958;2023-08-06T10:43:47;21.80;99.90
19493;DHT22;9887;54.366;10.958;2023-08-06T10:46:22;21.70;99.90
19493;DHT22;9887;54.366;10.958;2023-08-06T10:48:51;21.30;99.90
19493;DHT22;9887;54.366;10.958;2023-08-06T10:51:20;21.00;99.90
19493;DHT22;9887;54.366;10.958;2023-08-06T10:53:49;20.80;99.90
19493;DHT22;9887;54.366;10.958;2023-08-06T10:56:19;20.70;99.90
19493;DHT22;9887;54.366;10.958;2023-08-06T10:58:50;20.70;99.90
19493;DHT22;9887;54.366;10.958;2023-08-06T11:01:18;20.70;99.90
19493;DHT22;9887;54.366;10.958;2023-08-06T11:03:47;20.80;99.90
19493;DHT22;9887;54.366;10.958;2023-08-06T11:06:18;20.80;99.90
19493;DHT22;9887;54.366;10.958;2023-08-06T11:08:51;20.70;99.90
19493;DHT22;9887;54.366;10.958;2023-08-06T11:11:20;20.60;99.90
19493;DHT22;9887;54.366;10.958;2023-08-06T11:13:50;20.60;99.90
19493;DHT22;9887;54.366;10.958;2023-08-06T11:16:20;20.50;99.90
19493;DHT22;9887;54.366;10.958;2023-08-06T11:18:50;20.50;99.90
19493;DHT22;9887;54.366;10.958;2023-08-06T11:21:19;20.50;99.90
19493;DHT22;9887;54.366;10.958;2023-08-06T11:23:49;20.60;99.90
19493;DHT22;9887;54.366;10.958;2023-08-06T11:26:19;20.40;99.90
19493;DHT22;9887;54.366;10.958;2023-08-06T11:28:47;20.40;99.90
19493;DHT22;9887;54.366;10.958;2023-08-06T11:31:19;20.50;99.90
19493;DHT22;9887;54.366;10.958;2023-08-06T11:33:47;20.50;99.90
19493;DHT22;9887;54.366;10.958;2023-08-06T11:36:15;20.40;99.90
19493;DHT22;9887;54.366;10.958;2023-08-06T11:38:43;20.40;99.90
19493;DHT22;9887;54.366;10.958;2023-08-06T11:41:13;20.50;99.90
19493;DHT22;9887;54.366;10.958;2023-08-06T11:43:41;20.50;99.90
19493;DHT22;9887;54.366;10.958;2023-08-06T11:46:08;20.40;99.90
19493;DHT22;9887;54.366;10.958;2023-08-06T11:48:50;20.40;99.90
19493;DHT22;9887;54.366;10.958;2023-08-06T11:51:21;20.40;99.90
19493;DHT22;9887;54.366;10.958;2023-08-06T11:53:49;20.40;99.90
19493;DHT22;9887;54.366;10.958;2023-08-06T11:56:19;20.30;99.90
19493;DHT22;9887;54.366;10.958;2023-08-06T11:58:47;20.30;99.90
19493;DHT22;9887;54.366;10.958;2023-08-06T12:01:15;20.30;99.90
19493;DHT22;9887;54.366;10.958;2023-08-06T12:03:43;20.30;99.90
19493;DHT22;9887;54.366;10.958;2023-08-06T12:06:11;20.30;99.90
19493;DHT22;9887;54.366;10.958;2023-08-06T12:08:38;20.30;99.90
19493;DHT22;9887;54.366;10.958;2023-08-06T12:11:08;20.20;99.90
19493;DHT22;9887;54.366;10.958;2023-08-06T12:13:38;20.20;99.90
19493;DHT22;9887;54.366;10.958;2023-08-06T12:16:05;20.30;99.90
19493;DHT22;9887;54.366;10.958;2023-08-06T12:18:33;20.30;99.90
19493;DHT22;9887;54.366;10.958;2023-08-06T12:21:01;20.20;99.90
19493;DHT22;9887;54.366;10.958;2023-08-06T12:23:29;20.20;99.90
19493;DHT22;9887;54.366;10.958;2023-08-06T12:25:59;20.30;99.90
19493;DHT22;9887;54.366;10.958;2023-08-06T12:28:27;20.20;99.90
19493;DHT22;9887;54.366;10.958;2023-08-06T12:30:56;20.30;99.90
19493;DHT22;9887;54.366;10.958;2023-08-06T12:33:24;20.30;99.90
19493;DHT22;9887;54.366;10.958;2023-08-06T12:35:52;20.40;99.90
19493;DHT22;9887;54.366;10.958;2023-08-06T12:38:21;20.40;99.90
19493;DHT22;9887;54.366;10.958;2023-08-06T12:40:49;20.40;99.90
19493;DHT22;9887;54.366;10.958;2023-08-06T12:43:17;20.50;99.90
19493;DHT22;9887;54.366;10.958;2023-08-06T12:45:45;20.50;99.90
19493;DHT22;9887;54.366;10.958;2023-08-06T12:48:16;20.50;99.90
19493;DHT22;9887;54.366;10.958;2023-08-06T12:50:45;20.40;99.90
19493;DHT22;9887;54.366;10.958;2023-08-06T12:53:13;20.30;99.90
19493;DHT22;9887;54.366;10.958;2023-08-06T12:55:41;20.30;99.90
19493;DHT22;9887;54.366;10.958;2023-08-06T12:58:09;20.40;99.90
19493;DHT22;9887;54.366;10.958;2023-08-06T13:00:37;20.40;99.90
19493;DHT22;9887;54.366;10.958;2023-08-06T13:03:05;20.50;99.90
19493;DHT22;9887;54.366;10.958;2023-08-06T13:05:35;20.60;99.90
19493;DHT22;9887;54.366;10.958;2023-08-06T13:08:03;20.60;99.90
19493;DHT22;9887;54.366;10.958;2023-08-06T13:10:31;20.60;99.90
19493;DHT22;9887;54.366;10.958;2023-08-06T13:12:59;20.60;99.90
19493;DHT22;9887;54.366;10.958;2023-08-06T13:15:27;20.60;99.90
19493;DHT22;9887;54.366;10.958;2023-08-06T13:17:54;20.60;99.90
19493;DHT22;9887;54.366;10.958;2023-08-06T13:20:22;20.60;99.90
19493;DHT22;9887;54.366;10.958;2023-08-06T13:22:52;20.60;99.90
19493;DHT22;9887;54.366;10.958;2023-08-06T13:25:20;20.60;99.90
19493;DHT22;9887;54.366;10.958;2023-08-06T13:27:48;20.50;99.90
19493;DHT22;9887;54.366;10.958;2023-08-06T13:30:16;20.40;99.90
19493;DHT22;9887;54.366;10.958;2023-08-06T13:32:45;20.40;99.90
19493;DHT22;9887;54.366;10.958;2023-08-06T13:35:13;20.40;99.90
19493;DHT22;9887;54.366;10.958;2023-08-06T13:37:40;20.40;99.90
19493;DHT22;9887;54.366;10.958;2023-08-06T13:40:10;20.50;99.90
19493;DHT22;9887;54.366;10.958;2023-08-06T13:42:38;20.50;99.90
19493;DHT22;9887;54.366;10.958;2023-08-06T13:45:07;20.40;99.90
19493;DHT22;9887;54.366;10.958;2023-08-06T13:47:35;20.30;99.90
19493;DHT22;9887;54.366;10.958;2023-08-06T13:50:04;20.40;99.90
19493;DHT22;9887;54.366;10.958;2023-08-06T13:52:32;20.30;99.90
19493;DHT22;9887;54.366;10.958;2023-08-06T13:55:01;20.30;99.90
19493;DHT22;9887;54.366;10.958;2023-08-06T13:57:32;20.40;99.90
19493;DHT22;9887;54.366;10.958;2023-08-06T13:59:59;20.40;99.90
19493;DHT22;9887;54.366;10.958;2023-08-06T14:02:38;20.40;99.90
19493;DHT22;9887;54.366;10.958;2023-08-06T14:05:06;20.40;99.90
19493;DHT22;9887;54.366;10.958;2023-08-06T14:07:35;20.50;99.90
19493;DHT22;9887;54.366;10.958;2023-08-06T14:10:04;20.40;99.90
19493;DHT22;9887;54.366;10.958;2023-08-06T14:12:34;20.50;99.90
19493;DHT22;9887;54.366;10.958;2023-08-06T14:15:02;20.60;99.90
19493;DHT22;9887;54.366;10.958;2023-08-06T14:17:30;20.70;99.90
19493;DHT22;9887;54.366;10.958;2023-08-06T14:19:58;20.80;99.90
19493;DHT22;9887;54.366;10.958;2023-08-06T14:22:27;20.90;99.90
19493;DHT22;9887;54.366;10.958;2023-08-06T14:24:57;21.00;99.90
19493;DHT22;9887;54.366;10.958;2023-08-06T14:27:25;21.10;99.90
19493;DHT22;9887;54.366;10.958;2023-08-06T14:29:54;21.20;99.90
19493;DHT22;9887;54.366;10.958;2023-08-06T14:32:22;21.20;99.90
19493;DHT22;9887;54.366;10.958;2023-08-06T14:34:50;21.30;99.90
19493;DHT22;9887;54.366;10.958;2023-08-06T14:37:17;21.40;99.90
19493;DHT22;9887;54.366;10.958;2023-08-06T14:39:45;21.40;99.90
19493;DHT22;9887;54.366;10.958;2023-08-06T14:42:13;21.50;99.90
19493;DHT22;9887;54.366;10.958;2023-08-06T14:44:41;21.50;99.90
19493;DHT22;9887;54.366;10.958;2023-08-06T14:47:10;21.60;99.90
19493;DHT22;9887;54.366;10.958;2023-08-06T14:49:38;21.60;99.90
19493;DHT22;9887;54.366;10.958;2023-08-06T14:52:06;21.60;99.90
19493;DHT22;9887;54.366;10.958;2023-08-06T14:54:34;21.70;99.90
19493;DHT22;9887;54.366;10.958;2023-08-06T14:57:02;21.60;99.90
19493;DHT22;9887;54.366;10.958;2023-08-06T14:59:30;21.70;99.90
19493;DHT22;9887;54.366;10.958;2023-08-06T15:01:59;21.70;99.90
19493;DHT22;9887;54.366;10.958;2023-08-06T15:04:28;21.70;99.90
19493;DHT22;9887;54.366;10.958;2023-08-06T15:06:56;21.70;99.90
19493;DHT22;9887;54.366;10.958;2023-08-06T15:09:24;21.80;99.90
19493;DHT22;9887;54.366;10.958;2023-08-06T15:11:52;21.80;99.90
19493;DHT22;9887;54.366;10.958;2023-08-06T15:14:20;21.80;99.90
19493;DHT22;9887;54.366;10.958;2023-08-06T15:16:48;21.80;99.90
19493;DHT22;9887;54.366;10.958;2023-08-06T15:19:18;21.70;99.90
19493;DHT22;9887;54.366;10.958;2023-08-06T15:21:47;21.80;99.90
19493;DHT22;9887;54.366;10.958;2023-08-06T15:24:15;21.70;99.90
19493;DHT22;9887;54.366;10.958;2023-08-06T15:26:43;21.70;99.90
19493;DHT22;9887;54.366;10.958;2023-08-06T15:29:11;21.70;99.90
19493;DHT22;9887;54.366;10.958;2023-08-06T15:31:39;21.60;99.90
19493;DHT22;9887;54.366;10.958;2023-08-06T15:34:08;21.60;99.90
19493;DHT22;9887;54.366;10.958;2023-08-06T15:36:36;21.60;99.90
19493;DHT22;9887;54.366;10.958;2023-08-06T15:39:05;21.60;99.90
19493;DHT22;9887;54.366;10.958;2023-08-06T15:41:33;21.50;99.90